Kakariki — ZMKA — position and weather

sailwx.info

Track history (hours):
 
Tides and Currents Weather Stations Pressure Air Temp Water Temp Dewpoint Dewpoint Depression Visibility Wind Speed Wind Dir Waves Ship Positions

Kakariki

Last reported at 2017-Nov-19 16:43 UTC. Time now 2017-Nov-20 10:03 UTC.
Position S 37°40' E 176°11'.

Length 183 m; beam 32 m; draft 11 m.

Type: Ship (hazmat cat A). MMSI: 512000050.

Date/timePositionNaut miles runAvg speedWind from/ knotsBaromVisibWave heightAir tempDewpointWater temp
2017-Nov-19 16:43S 37°40' E 176°11'0 0.2
2017-Nov-19 16:30S 37°40' E 176°11'2 3.6
2017-Nov-19 16:01S 37°38' E 176°10'4 7.2
2017-Nov-19 15:30S 37°35' E 176°12'3 5.6
2017-Nov-19 15:00S 37°33' E 176°14'1 1.6
2017-Nov-19 14:30S 37°32' E 176°15'77 5.3
2017-Nov-19 00:00S 36°24' E 175°30'10 4.8 170 / 281010.110.8 16.512.9
2017-Nov-18 21:59S 36°21' E 175°19'10 9.8
2017-Nov-18 21:01S 36°28' E 175°10'010.0
2017-Nov-18 20:59S 36°28' E 175°10'510.2
2017-Nov-18 20:30S 36°32' E 175°06'510.2
2017-Nov-18 20:00S 36°35' E 175°02'510.1
2017-Nov-18 19:30S 36°38' E 174°57'510.5
2017-Nov-18 19:00S 36°42' E 174°52'5 9.4
2017-Nov-18 18:30S 36°46' E 174°49'4 7.3
2017-Nov-18 18:00S 36°50' E 174°50'3 5.1
2017-Nov-18 17:30S 36°50' E 174°47'1 1.4
2017-Nov-18 17:00S 36°50' E 174°46'0 0.4
2017-Nov-18 16:30S 36°50' E 174°46'0 0.0
2017-Nov-18 16:00S 36°50' E 174°46'0 0.0
2017-Nov-18 04:28S 36°50' E 174°46'1 2.3
2017-Nov-18 04:00S 36°50' E 174°47'3 5.7
2017-Nov-18 03:30S 36°48' E 174°49'4 8.8
2017-Nov-18 03:00S 36°44' E 174°51'3 5.1
2017-Nov-18 02:30S 36°41' E 174°52'0 0.2
2017-Nov-18 01:55S 36°41' E 174°52'0 0.0
2017-Nov-18 01:19S 36°41' E 174°52'0 0.0
2017-Nov-18 00:55S 36°41' E 174°52'0 0.0
2017-Nov-18 00:25S 36°41' E 174°52'0 0.0
2017-Nov-18 00:00S 36°41' E 174°52'0 0.0
2017-Nov-17 23:30S 36°41' E 174°52'0 0.1
2017-Nov-17 23:00S 36°41' E 174°52'2 3.5
2017-Nov-17 22:30S 36°40' E 174°54'4 8.9
2017-Nov-17 22:00S 36°37' E 174°57'510.1
2017-Nov-17 21:30S 36°33' E 175°00'510.1
2017-Nov-17 21:00S 36°28' E 175°00'5 9.5
2017-Nov-17 20:30S 36°23' E 174°60'5 9.6
2017-Nov-17 20:00S 36°19' E 174°56'5 9.1
2017-Nov-17 19:29S 36°15' E 174°53'7 9.0
2017-Nov-17 18:44S 36°10' E 174°48'2 9.2
2017-Nov-17 18:30S 36°08' E 174°46'34 0.9
2017-Nov-16 03:10S 35°52' E 175°23'212.2
2017-Nov-16 03:00S 35°54' E 175°26'3311.1
2017-Nov-16 00:00S 36°12' E 176°00'7512.6 090 / 141023.410.8 17.012.5
2017-Nov-15 18:00S 36°54' E 177°18'163 9.1 030 / 281024.710.8 15.011.3
2017-Nov-15 00:00S 39°36' E 177°42'180 7.2 060 / 101027.410.8 15.5 9.8
2017-Nov-13 23:00S 41°48' E 175°00'102 2.2 220 / 151026.210.8 15.4 7.6
2017-Nov-12 00:00S 43°06' E 173°30'19210.7 240 / 181014.510.8 12.0 9.0
2017-Nov-11 06:00S 40°48' E 176°30'   180 / 221013.610.8 13.5 9.0
Track history (hours):
 
Tides and Currents Weather Stations Pressure Air Temp Water Temp Dewpoint Dewpoint Depression Visibility Wind Speed Wind Dir Waves Ship Positions

Kakariki

Last reported at 2017-Nov-19 16:43 UTC. Time now 2017-Nov-20 10:03 UTC.
Position S 37°40' E 176°11'.

Length 183 m; beam 32 m; draft 11 m.

Type: Ship (hazmat cat A). MMSI: 512000050.

Date/timePositionNaut miles runAvg speedWind from/ knotsBaromVisibWave heightAir tempDewpointWater temp
2017-Nov-19 16:43S 37°40' E 176°11'0 0.2
2017-Nov-19 16:30S 37°40' E 176°11'2 3.6
2017-Nov-19 16:01S 37°38' E 176°10'4 7.2
2017-Nov-19 15:30S 37°35' E 176°12'3 5.6
2017-Nov-19 15:00S 37°33' E 176°14'1 1.6
2017-Nov-19 14:30S 37°32' E 176°15'77 5.3
2017-Nov-19 00:00S 36°24' E 175°30'10 4.8 170 / 281010.110.8 16.512.9
2017-Nov-18 21:59S 36°21' E 175°19'10 9.8
2017-Nov-18 21:01S 36°28' E 175°10'010.0
2017-Nov-18 20:59S 36°28' E 175°10'510.2
2017-Nov-18 20:30S 36°32' E 175°06'510.2
2017-Nov-18 20:00S 36°35' E 175°02'510.1
2017-Nov-18 19:30S 36°38' E 174°57'510.5
2017-Nov-18 19:00S 36°42' E 174°52'5 9.4
2017-Nov-18 18:30S 36°46' E 174°49'4 7.3
2017-Nov-18 18:00S 36°50' E 174°50'3 5.1
2017-Nov-18 17:30S 36°50' E 174°47'1 1.4
2017-Nov-18 17:00S 36°50' E 174°46'0 0.4
2017-Nov-18 16:30S 36°50' E 174°46'0 0.0
2017-Nov-18 16:00S 36°50' E 174°46'0 0.0
2017-Nov-18 04:28S 36°50' E 174°46'1 2.3
2017-Nov-18 04:00S 36°50' E 174°47'3 5.7
2017-Nov-18 03:30S 36°48' E 174°49'4 8.8
2017-Nov-18 03:00S 36°44' E 174°51'3 5.1
2017-Nov-18 02:30S 36°41' E 174°52'0 0.2
2017-Nov-18 01:55S 36°41' E 174°52'0 0.0
2017-Nov-18 01:19S 36°41' E 174°52'0 0.0
2017-Nov-18 00:55S 36°41' E 174°52'0 0.0
2017-Nov-18 00:25S 36°41' E 174°52'0 0.0
2017-Nov-18 00:00S 36°41' E 174°52'0 0.0
2017-Nov-17 23:30S 36°41' E 174°52'0 0.1
2017-Nov-17 23:00S 36°41' E 174°52'2 3.5
2017-Nov-17 22:30S 36°40' E 174°54'4 8.9
2017-Nov-17 22:00S 36°37' E 174°57'510.1
2017-Nov-17 21:30S 36°33' E 175°00'510.1
2017-Nov-17 21:00S 36°28' E 175°00'5 9.5
2017-Nov-17 20:30S 36°23' E 174°60'5 9.6
2017-Nov-17 20:00S 36°19' E 174°56'5 9.1
2017-Nov-17 19:29S 36°15' E 174°53'7 9.0
2017-Nov-17 18:44S 36°10' E 174°48'2 9.2
2017-Nov-17 18:30S 36°08' E 174°46'34 0.9
2017-Nov-16 03:10S 35°52' E 175°23'212.2
2017-Nov-16 03:00S 35°54' E 175°26'3311.1
2017-Nov-16 00:00S 36°12' E 176°00'7512.6 090 / 141023.410.8 17.012.5
2017-Nov-15 18:00S 36°54' E 177°18'163 9.1 030 / 281024.710.8 15.011.3
2017-Nov-15 00:00S 39°36' E 177°42'180 7.2 060 / 101027.410.8 15.5 9.8
2017-Nov-13 23:00S 41°48' E 175°00'102 2.2 220 / 151026.210.8 15.4 7.6
2017-Nov-12 00:00S 43°06' E 173°30'19210.7 240 / 181014.510.8 12.0 9.0
2017-Nov-11 06:00S 40°48' E 176°30'   180 / 221013.610.8 13.5 9.0

Dump ship's entire track history